sensor_id;sensor_type;location;lat;lon;timestamp;P1;durP1;ratioP1;P2;durP2;ratioP2
49840;SDS011;35738;49.890;5.930;2024-03-02T00:00:52;2.25;;;1.50;;
49840;SDS011;35738;49.890;5.930;2024-03-02T00:03:19;4.45;;;1.75;;
49840;SDS011;35738;49.890;5.930;2024-03-02T00:05:50;3.20;;;1.67;;
49840;SDS011;35738;49.890;5.930;2024-03-02T00:08:20;2.88;;;1.80;;
49840;SDS011;35738;49.890;5.930;2024-03-02T00:10:50;3.78;;;1.80;;
49840;SDS011;35738;49.890;5.930;2024-03-02T00:13:19;3.45;;;1.90;;
49840;SDS011;35738;49.890;5.930;2024-03-02T00:15:53;2.85;;;1.83;;
49840;SDS011;35738;49.890;5.930;2024-03-02T00:18:30;2.63;;;1.80;;
49840;SDS011;35738;49.890;5.930;2024-03-02T00:20:58;4.38;;;1.90;;
49840;SDS011;35738;49.890;5.930;2024-03-02T00:23:32;4.45;;;1.77;;
49840;SDS011;35738;49.890;5.930;2024-03-02T00:26:01;3.30;;;1.98;;
49840;SDS011;35738;49.890;5.930;2024-03-02T00:28:34;3.85;;;1.55;;
49840;SDS011;35738;49.890;5.930;2024-03-02T00:31:09;1.70;;;1.60;;
49840;SDS011;35738;49.890;5.930;2024-03-02T00:33:43;3.75;;;1.70;;
49840;SDS011;35738;49.890;5.930;2024-03-02T00:36:15;3.53;;;1.63;;
49840;SDS011;35738;49.890;5.930;2024-03-02T00:38:46;3.05;;;1.80;;
49840;SDS011;35738;49.890;5.930;2024-03-02T00:41:36;4.47;;;2.00;;
49840;SDS011;35738;49.890;5.930;2024-03-02T00:44:12;4.47;;;1.98;;
49840;SDS011;35738;49.890;5.930;2024-03-02T00:46:39;3.20;;;1.70;;
49840;SDS011;35738;49.890;5.930;2024-03-02T00:51:37;5.10;;;1.65;;
49840;SDS011;35738;49.890;5.930;2024-03-02T00:54:07;3.63;;;2.20;;
49840;SDS011;35738;49.890;5.930;2024-03-02T00:56:35;6.00;;;3.80;;
49840;SDS011;35738;49.890;5.930;2024-03-02T00:59:02;2.90;;;1.80;;
49840;SDS011;35738;49.890;5.930;2024-03-02T01:01:34;3.55;;;2.05;;
49840;SDS011;35738;49.890;5.930;2024-03-02T01:04:12;4.20;;;2.22;;
49840;SDS011;35738;49.890;5.930;2024-03-02T01:06:51;4.15;;;2.38;;
49840;SDS011;35738;49.890;5.930;2024-03-02T01:09:19;5.30;;;2.90;;
49840;SDS011;35738;49.890;5.930;2024-03-02T01:11:57;4.95;;;2.65;;
49840;SDS011;35738;49.890;5.930;2024-03-02T01:14:25;4.82;;;3.35;;
49840;SDS011;35738;49.890;5.930;2024-03-02T01:16:54;10.70;;;6.07;;
49840;SDS011;35738;49.890;5.930;2024-03-02T01:19:22;11.27;;;6.68;;
49840;SDS011;35738;49.890;5.930;2024-03-02T01:21:56;14.32;;;8.23;;
49840;SDS011;35738;49.890;5.930;2024-03-02T01:24:24;11.30;;;7.10;;
49840;SDS011;35738;49.890;5.930;2024-03-02T01:26:51;6.03;;;4.40;;
49840;SDS011;35738;49.890;5.930;2024-03-02T01:29:29;9.68;;;5.65;;
49840;SDS011;35738;49.890;5.930;2024-03-02T01:32:05;6.72;;;5.20;;
49840;SDS011;35738;49.890;5.930;2024-03-02T01:34:39;7.53;;;4.47;;
49840;SDS011;35738;49.890;5.930;2024-03-02T01:37:06;4.38;;;2.97;;
49840;SDS011;35738;49.890;5.930;2024-03-02T01:39:32;5.47;;;3.70;;
49840;SDS011;35738;49.890;5.930;2024-03-02T01:42:01;7.38;;;4.47;;
49840;SDS011;35738;49.890;5.930;2024-03-02T01:44:31;8.45;;;5.53;;
49840;SDS011;35738;49.890;5.930;2024-03-02T01:46:57;5.72;;;4.18;;
49840;SDS011;35738;49.890;5.930;2024-03-02T01:49:28;8.02;;;4.30;;
49840;SDS011;35738;49.890;5.930;2024-03-02T01:51:55;1.75;;;1.52;;
49840;SDS011;35738;49.890;5.930;2024-03-02T01:54:22;5.57;;;2.13;;
49840;SDS011;35738;49.890;5.930;2024-03-02T01:56:49;2.25;;;2.00;;
49840;SDS011;35738;49.890;5.930;2024-03-02T01:59:16;2.70;;;1.30;;
49840;SDS011;35738;49.890;5.930;2024-03-02T02:01:43;2.10;;;1.60;;
49840;SDS011;35738;49.890;5.930;2024-03-02T02:04:09;2.55;;;1.83;;
49840;SDS011;35738;49.890;5.930;2024-03-02T02:06:35;3.65;;;1.48;;
49840;SDS011;35738;49.890;5.930;2024-03-02T02:09:02;1.77;;;1.17;;
49840;SDS011;35738;49.890;5.930;2024-03-02T02:11:29;1.60;;;1.48;;
49840;SDS011;35738;49.890;5.930;2024-03-02T02:13:56;5.57;;;2.65;;
49840;SDS011;35738;49.890;5.930;2024-03-02T02:16:22;7.28;;;3.58;;
49840;SDS011;35738;49.890;5.930;2024-03-02T02:18:49;3.58;;;2.83;;
49840;SDS011;35738;49.890;5.930;2024-03-02T02:21:15;1.65;;;1.05;;
49840;SDS011;35738;49.890;5.930;2024-03-02T02:23:42;0.98;;;0.80;;
49840;SDS011;35738;49.890;5.930;2024-03-02T02:26:12;1.38;;;0.88;;
49840;SDS011;35738;49.890;5.930;2024-03-02T02:28:39;1.02;;;0.70;;
49840;SDS011;35738;49.890;5.930;2024-03-02T02:31:13;1.88;;;0.88;;
49840;SDS011;35738;49.890;5.930;2024-03-02T02:33:40;1.58;;;1.13;;
49840;SDS011;35738;49.890;5.930;2024-03-02T02:36:07;1.00;;;1.00;;
49840;SDS011;35738;49.890;5.930;2024-03-02T02:38:34;1.10;;;1.05;;
49840;SDS011;35738;49.890;5.930;2024-03-02T02:41:04;1.00;;;1.00;;
49840;SDS011;35738;49.890;5.930;2024-03-02T02:43:30;3.25;;;1.00;;
49840;SDS011;35738;49.890;5.930;2024-03-02T02:45:57;1.75;;;1.30;;
49840;SDS011;35738;49.890;5.930;2024-03-02T02:48:24;3.20;;;0.95;;
49840;SDS011;35738;49.890;5.930;2024-03-02T02:50:50;2.50;;;1.10;;
49840;SDS011;35738;49.890;5.930;2024-03-02T02:53:17;0.90;;;0.90;;
49840;SDS011;35738;49.890;5.930;2024-03-02T02:55:43;0.80;;;0.80;;
49840;SDS011;35738;49.890;5.930;2024-03-02T02:58:10;0.75;;;0.63;;
49840;SDS011;35738;49.890;5.930;2024-03-02T03:00:36;0.90;;;0.60;;
49840;SDS011;35738;49.890;5.930;2024-03-02T03:03:03;0.55;;;0.55;;
49840;SDS011;35738;49.890;5.930;2024-03-02T03:05:30;1.27;;;0.80;;
49840;SDS011;35738;49.890;5.930;2024-03-02T03:07:56;0.70;;;0.70;;
49840;SDS011;35738;49.890;5.930;2024-03-02T03:10:23;1.25;;;0.88;;
49840;SDS011;35738;49.890;5.930;2024-03-02T03:12:52;0.90;;;0.90;;
49840;SDS011;35738;49.890;5.930;2024-03-02T03:15:18;1.27;;;0.73;;
49840;SDS011;35738;49.890;5.930;2024-03-02T03:17:45;0.85;;;0.85;;
49840;SDS011;35738;49.890;5.930;2024-03-02T03:20:13;0.90;;;0.90;;
49840;SDS011;35738;49.890;5.930;2024-03-02T03:22:42;2.15;;;0.90;;
49840;SDS011;35738;49.890;5.930;2024-03-02T03:25:08;0.95;;;0.90;;
49840;SDS011;35738;49.890;5.930;2024-03-02T03:27:35;2.22;;;0.93;;
49840;SDS011;35738;49.890;5.930;2024-03-02T03:30:02;2.28;;;0.98;;
49840;SDS011;35738;49.890;5.930;2024-03-02T03:32:29;1.85;;;0.98;;
49840;SDS011;35738;49.890;5.930;2024-03-02T03:34:55;0.80;;;0.80;;
49840;SDS011;35738;49.890;5.930;2024-03-02T03:37:22;0.90;;;0.90;;
49840;SDS011;35738;49.890;5.930;2024-03-02T03:39:48;0.88;;;0.88;;
49840;SDS011;35738;49.890;5.930;2024-03-02T03:42:15;0.90;;;0.82;;
49840;SDS011;35738;49.890;5.930;2024-03-02T03:44:42;0.80;;;0.80;;
49840;SDS011;35738;49.890;5.930;2024-03-02T03:47:08;0.80;;;0.63;;
49840;SDS011;35738;49.890;5.930;2024-03-02T03:49:35;0.77;;;0.77;;
49840;SDS011;35738;49.890;5.930;2024-03-02T03:52:01;2.30;;;0.80;;
49840;SDS011;35738;49.890;5.930;2024-03-02T03:54:28;0.88;;;0.80;;
49840;SDS011;35738;49.890;5.930;2024-03-02T03:56:55;0.70;;;0.70;;
49840;SDS011;35738;49.890;5.930;2024-03-02T03:59:22;0.60;;;0.60;;
49840;SDS011;35738;49.890;5.930;2024-03-02T04:01:48;0.60;;;0.60;;
49840;SDS011;35738;49.890;5.930;2024-03-02T04:04:15;2.20;;;0.80;;
49840;SDS011;35738;49.890;5.930;2024-03-02T04:06:42;1.03;;;0.70;;
49840;SDS011;35738;49.890;5.930;2024-03-02T04:09:08;0.75;;;0.73;;
49840;SDS011;35738;49.890;5.930;2024-03-02T04:11:35;2.25;;;0.73;;
49840;SDS011;35738;49.890;5.930;2024-03-02T04:14:01;0.63;;;0.63;;
49840;SDS011;35738;49.890;5.930;2024-03-02T04:16:28;1.07;;;0.77;;
49840;SDS011;35738;49.890;5.930;2024-03-02T04:18:55;2.03;;;0.70;;
49840;SDS011;35738;49.890;5.930;2024-03-02T04:21:21;1.40;;;0.63;;
49840;SDS011;35738;49.890;5.930;2024-03-02T04:23:48;2.13;;;0.70;;
49840;SDS011;35738;49.890;5.930;2024-03-02T04:26:15;0.95;;;0.85;;
49840;SDS011;35738;49.890;5.930;2024-03-02T04:28:45;2.97;;;0.90;;
49840;SDS011;35738;49.890;5.930;2024-03-02T04:31:12;1.08;;;0.77;;
49840;SDS011;35738;49.890;5.930;2024-03-02T04:33:41;2.25;;;1.23;;
49840;SDS011;35738;49.890;5.930;2024-03-02T04:36:07;1.00;;;0.90;;
49840;SDS011;35738;49.890;5.930;2024-03-02T04:38:36;1.50;;;0.90;;
49840;SDS011;35738;49.890;5.930;2024-03-02T04:41:03;1.73;;;0.90;;
49840;SDS011;35738;49.890;5.930;2024-03-02T04:43:32;2.80;;;1.80;;
49840;SDS011;35738;49.890;5.930;2024-03-02T04:46:00;1.00;;;1.00;;
49840;SDS011;35738;49.890;5.930;2024-03-02T04:48:27;1.40;;;1.10;;
49840;SDS011;35738;49.890;5.930;2024-03-02T04:50:54;1.55;;;1.00;;
49840;SDS011;35738;49.890;5.930;2024-03-02T04:53:20;1.25;;;1.00;;
49840;SDS011;35738;49.890;5.930;2024-03-02T04:55:47;1.25;;;1.00;;
49840;SDS011;35738;49.890;5.930;2024-03-02T04:58:32;2.13;;;1.00;;
49840;SDS011;35738;49.890;5.930;2024-03-02T05:00:58;2.65;;;1.00;;
49840;SDS011;35738;49.890;5.930;2024-03-02T05:03:25;2.17;;;1.30;;
49840;SDS011;35738;49.890;5.930;2024-03-02T05:05:52;3.28;;;1.05;;
49840;SDS011;35738;49.890;5.930;2024-03-02T05:08:18;2.55;;;1.10;;
49840;SDS011;35738;49.890;5.930;2024-03-02T05:10:45;1.38;;;1.20;;
49840;SDS011;35738;49.890;5.930;2024-03-02T05:13:12;1.67;;;1.20;;
49840;SDS011;35738;49.890;5.930;2024-03-02T05:15:38;2.53;;;1.50;;
49840;SDS011;35738;49.890;5.930;2024-03-02T05:18:05;1.95;;;1.23;;
49840;SDS011;35738;49.890;5.930;2024-03-02T05:20:31;2.05;;;1.20;;
49840;SDS011;35738;49.890;5.930;2024-03-02T05:22:58;3.97;;;1.48;;
49840;SDS011;35738;49.890;5.930;2024-03-02T05:25:24;1.30;;;1.13;;
49840;SDS011;35738;49.890;5.930;2024-03-02T05:27:51;1.63;;;1.30;;
49840;SDS011;35738;49.890;5.930;2024-03-02T05:30:20;2.00;;;1.23;;
49840;SDS011;35738;49.890;5.930;2024-03-02T05:32:47;4.20;;;2.17;;
49840;SDS011;35738;49.890;5.930;2024-03-02T05:35:13;6.47;;;1.60;;
49840;SDS011;35738;49.890;5.930;2024-03-02T05:37:40;1.67;;;1.23;;
49840;SDS011;35738;49.890;5.930;2024-03-02T05:40:07;1.20;;;1.10;;
49840;SDS011;35738;49.890;5.930;2024-03-02T05:42:34;1.65;;;1.20;;
49840;SDS011;35738;49.890;5.930;2024-03-02T05:45:00;2.65;;;1.13;;
49840;SDS011;35738;49.890;5.930;2024-03-02T05:47:27;2.83;;;1.23;;
49840;SDS011;35738;49.890;5.930;2024-03-02T05:49:54;0.90;;;0.90;;
49840;SDS011;35738;49.890;5.930;2024-03-02T05:52:20;1.95;;;0.85;;
49840;SDS011;35738;49.890;5.930;2024-03-02T05:54:47;3.13;;;1.00;;
49840;SDS011;35738;49.890;5.930;2024-03-02T05:57:15;1.80;;;1.00;;
49840;SDS011;35738;49.890;5.930;2024-03-02T06:00:04;4.20;;;0.90;;
49840;SDS011;35738;49.890;5.930;2024-03-02T06:02:34;2.92;;;1.02;;
49840;SDS011;35738;49.890;5.930;2024-03-02T06:05:05;5.27;;;1.07;;
49840;SDS011;35738;49.890;5.930;2024-03-02T06:07:34;1.77;;;1.17;;
49840;SDS011;35738;49.890;5.930;2024-03-02T06:10:00;4.07;;;1.08;;
49840;SDS011;35738;49.890;5.930;2024-03-02T06:12:27;2.35;;;1.08;;
49840;SDS011;35738;49.890;5.930;2024-03-02T06:14:54;3.97;;;1.80;;
49840;SDS011;35738;49.890;5.930;2024-03-02T06:17:20;2.83;;;1.80;;
49840;SDS011;35738;49.890;5.930;2024-03-02T06:19:47;2.60;;;1.55;;
49840;SDS011;35738;49.890;5.930;2024-03-02T06:22:14;3.63;;;1.30;;
49840;SDS011;35738;49.890;5.930;2024-03-02T06:24:40;2.25;;;1.48;;
49840;SDS011;35738;49.890;5.930;2024-03-02T06:27:07;2.60;;;1.30;;
49840;SDS011;35738;49.890;5.930;2024-03-02T06:29:33;4.50;;;1.60;;
49840;SDS011;35738;49.890;5.930;2024-03-02T06:32:00;3.07;;;1.67;;
49840;SDS011;35738;49.890;5.930;2024-03-02T06:34:27;4.37;;;1.77;;
49840;SDS011;35738;49.890;5.930;2024-03-02T06:36:53;3.60;;;1.60;;
49840;SDS011;35738;49.890;5.930;2024-03-02T06:39:20;3.22;;;1.52;;
49840;SDS011;35738;49.890;5.930;2024-03-02T06:41:46;6.13;;;2.00;;
49840;SDS011;35738;49.890;5.930;2024-03-02T06:44:13;3.13;;;1.48;;
49840;SDS011;35738;49.890;5.930;2024-03-02T06:46:40;3.43;;;1.70;;
49840;SDS011;35738;49.890;5.930;2024-03-02T06:49:06;2.22;;;1.70;;
49840;SDS011;35738;49.890;5.930;2024-03-02T06:51:33;3.85;;;1.30;;
49840;SDS011;35738;49.890;5.930;2024-03-02T06:54:00;3.42;;;1.55;;
49840;SDS011;35738;49.890;5.930;2024-03-02T06:56:27;3.88;;;1.60;;
49840;SDS011;35738;49.890;5.930;2024-03-02T06:58:53;4.50;;;1.60;;
49840;SDS011;35738;49.890;5.930;2024-03-02T07:01:20;2.40;;;1.65;;
49840;SDS011;35738;49.890;5.930;2024-03-02T07:03:50;1.85;;;1.60;;
49840;SDS011;35738;49.890;5.930;2024-03-02T07:06:17;3.53;;;1.63;;
49840;SDS011;35738;49.890;5.930;2024-03-02T07:08:44;3.85;;;1.77;;
49840;SDS011;35738;49.890;5.930;2024-03-02T07:11:10;3.67;;;1.60;;
49840;SDS011;35738;49.890;5.930;2024-03-02T07:13:38;4.25;;;1.50;;
49840;SDS011;35738;49.890;5.930;2024-03-02T07:16:04;2.03;;;1.30;;
49840;SDS011;35738;49.890;5.930;2024-03-02T07:18:37;2.65;;;1.50;;
49840;SDS011;35738;49.890;5.930;2024-03-02T07:21:07;3.28;;;1.70;;
49840;SDS011;35738;49.890;5.930;2024-03-02T07:23:34;3.55;;;1.50;;
49840;SDS011;35738;49.890;5.930;2024-03-02T07:26:01;6.35;;;1.50;;
49840;SDS011;35738;49.890;5.930;2024-03-02T07:28:32;3.47;;;1.60;;
49840;SDS011;35738;49.890;5.930;2024-03-02T07:31:03;6.45;;;1.60;;
49840;SDS011;35738;49.890;5.930;2024-03-02T07:33:31;2.38;;;1.42;;
49840;SDS011;35738;49.890;5.930;2024-03-02T07:35:59;3.97;;;1.65;;
49840;SDS011;35738;49.890;5.930;2024-03-02T07:38:30;1.67;;;1.40;;
49840;SDS011;35738;49.890;5.930;2024-03-02T07:40:57;4.05;;;1.88;;
49840;SDS011;35738;49.890;5.930;2024-03-02T07:43:24;1.92;;;1.73;;
49840;SDS011;35738;49.890;5.930;2024-03-02T07:45:50;6.10;;;2.00;;
49840;SDS011;35738;49.890;5.930;2024-03-02T07:48:17;2.15;;;1.67;;
49840;SDS011;35738;49.890;5.930;2024-03-02T07:50:44;3.53;;;1.83;;
49840;SDS011;35738;49.890;5.930;2024-03-02T07:53:10;4.35;;;2.50;;
49840;SDS011;35738;49.890;5.930;2024-03-02T07:55:37;5.40;;;2.25;;
49840;SDS011;35738;49.890;5.930;2024-03-02T07:58:04;3.65;;;2.30;;
49840;SDS011;35738;49.890;5.930;2024-03-02T08:00:30;2.50;;;2.30;;
49840;SDS011;35738;49.890;5.930;2024-03-02T08:02:57;3.05;;;2.08;;
49840;SDS011;35738;49.890;5.930;2024-03-02T08:05:24;3.65;;;2.08;;
49840;SDS011;35738;49.890;5.930;2024-03-02T08:07:50;3.97;;;2.72;;
49840;SDS011;35738;49.890;5.930;2024-03-02T08:10:20;4.72;;;2.65;;
49840;SDS011;35738;49.890;5.930;2024-03-02T08:12:46;6.30;;;2.75;;
49840;SDS011;35738;49.890;5.930;2024-03-02T08:15:13;6.67;;;2.77;;
49840;SDS011;35738;49.890;5.930;2024-03-02T08:17:40;4.65;;;2.80;;
49840;SDS011;35738;49.890;5.930;2024-03-02T08:20:14;4.75;;;2.70;;
49840;SDS011;35738;49.890;5.930;2024-03-02T08:22:41;9.93;;;6.22;;
49840;SDS011;35738;49.890;5.930;2024-03-02T08:25:08;5.88;;;3.78;;
49840;SDS011;35738;49.890;5.930;2024-03-02T08:27:36;6.78;;;3.00;;
49840;SDS011;35738;49.890;5.930;2024-03-02T08:30:03;3.28;;;2.42;;
49840;SDS011;35738;49.890;5.930;2024-03-02T08:32:33;5.40;;;2.67;;
49840;SDS011;35738;49.890;5.930;2024-03-02T08:35:00;2.72;;;2.00;;
49840;SDS011;35738;49.890;5.930;2024-03-02T08:37:29;5.43;;;2.38;;
49840;SDS011;35738;49.890;5.930;2024-03-02T08:39:55;3.20;;;2.13;;
49840;SDS011;35738;49.890;5.930;2024-03-02T08:42:22;2.97;;;2.00;;
49840;SDS011;35738;49.890;5.930;2024-03-02T08:44:49;5.40;;;2.30;;
49840;SDS011;35738;49.890;5.930;2024-03-02T08:47:16;3.47;;;2.13;;
49840;SDS011;35738;49.890;5.930;2024-03-02T08:49:43;7.90;;;2.30;;
49840;SDS011;35738;49.890;5.930;2024-03-02T08:52:09;4.20;;;2.03;;
49840;SDS011;35738;49.890;5.930;2024-03-02T08:54:36;4.80;;;2.42;;
49840;SDS011;35738;49.890;5.930;2024-03-02T08:57:03;6.78;;;2.38;;
49840;SDS011;35738;49.890;5.930;2024-03-02T08:59:31;4.35;;;2.00;;
49840;SDS011;35738;49.890;5.930;2024-03-02T09:01:57;5.07;;;2.30;;
49840;SDS011;35738;49.890;5.930;2024-03-02T09:04:24;2.22;;;1.70;;
49840;SDS011;35738;49.890;5.930;2024-03-02T09:06:53;4.35;;;1.85;;
49840;SDS011;35738;49.890;5.930;2024-03-02T09:09:21;2.78;;;1.92;;
49840;SDS011;35738;49.890;5.930;2024-03-02T09:11:49;3.85;;;1.90;;
49840;SDS011;35738;49.890;5.930;2024-03-02T09:14:16;3.20;;;1.77;;
49840;SDS011;35738;49.890;5.930;2024-03-02T09:16:42;6.32;;;1.98;;
49840;SDS011;35738;49.890;5.930;2024-03-02T09:19:09;4.90;;;2.08;;
49840;SDS011;35738;49.890;5.930;2024-03-02T09:21:36;4.65;;;2.08;;
49840;SDS011;35738;49.890;5.930;2024-03-02T09:24:03;5.28;;;2.08;;
49840;SDS011;35738;49.890;5.930;2024-03-02T09:26:30;4.85;;;2.05;;
49840;SDS011;35738;49.890;5.930;2024-03-02T09:28:56;3.72;;;2.08;;
49840;SDS011;35738;49.890;5.930;2024-03-02T09:31:23;3.35;;;1.90;;
49840;SDS011;35738;49.890;5.930;2024-03-02T09:33:50;6.65;;;2.90;;
49840;SDS011;35738;49.890;5.930;2024-03-02T09:36:21;6.35;;;2.70;;
49840;SDS011;35738;49.890;5.930;2024-03-02T09:38:48;26.35;;;11.73;;
49840;SDS011;35738;49.890;5.930;2024-03-02T09:41:15;5.38;;;2.58;;
49840;SDS011;35738;49.890;5.930;2024-03-02T09:43:42;8.50;;;2.55;;
49840;SDS011;35738;49.890;5.930;2024-03-02T09:46:09;7.50;;;2.20;;
49840;SDS011;35738;49.890;5.930;2024-03-02T09:48:36;5.03;;;1.75;;
49840;SDS011;35738;49.890;5.930;2024-03-02T09:51:04;3.70;;;1.80;;
49840;SDS011;35738;49.890;5.930;2024-03-02T09:53:32;3.20;;;2.40;;
49840;SDS011;35738;49.890;5.930;2024-03-02T09:56:00;5.05;;;2.00;;
49840;SDS011;35738;49.890;5.930;2024-03-02T09:58:27;4.28;;;1.85;;
49840;SDS011;35738;49.890;5.930;2024-03-02T10:00:53;3.08;;;1.98;;
49840;SDS011;35738;49.890;5.930;2024-03-02T10:03:20;6.75;;;2.95;;
49840;SDS011;35738;49.890;5.930;2024-03-02T10:05:49;6.53;;;2.65;;
49840;SDS011;35738;49.890;5.930;2024-03-02T10:08:16;4.40;;;2.20;;
49840;SDS011;35738;49.890;5.930;2024-03-02T10:10:42;5.47;;;2.42;;
49840;SDS011;35738;49.890;5.930;2024-03-02T10:13:13;4.65;;;2.00;;
49840;SDS011;35738;49.890;5.930;2024-03-02T10:15:40;4.50;;;2.05;;
49840;SDS011;35738;49.890;5.930;2024-03-02T10:18:08;5.05;;;1.80;;
49840;SDS011;35738;49.890;5.930;2024-03-02T10:20:39;2.80;;;1.65;;
49840;SDS011;35738;49.890;5.930;2024-03-02T10:23:13;4.00;;;1.85;;
49840;SDS011;35738;49.890;5.930;2024-03-02T10:25:41;4.93;;;2.10;;
49840;SDS011;35738;49.890;5.930;2024-03-02T10:28:22;5.22;;;2.38;;
49840;SDS011;35738;49.890;5.930;2024-03-02T10:30:49;7.80;;;3.10;;
49840;SDS011;35738;49.890;5.930;2024-03-02T10:33:18;6.53;;;2.25;;
49840;SDS011;35738;49.890;5.930;2024-03-02T10:35:45;5.05;;;2.42;;
49840;SDS011;35738;49.890;5.930;2024-03-02T10:38:14;6.25;;;1.75;;
49840;SDS011;35738;49.890;5.930;2024-03-02T10:40:41;2.60;;;1.70;;
49840;SDS011;35738;49.890;5.930;2024-03-02T10:43:13;3.38;;;1.88;;
49840;SDS011;35738;49.890;5.930;2024-03-02T10:45:40;2.95;;;1.80;;
49840;SDS011;35738;49.890;5.930;2024-03-02T10:48:06;3.17;;;1.80;;
49840;SDS011;35738;49.890;5.930;2024-03-02T10:50:34;3.97;;;1.70;;
49840;SDS011;35738;49.890;5.930;2024-03-02T10:53:00;2.58;;;1.60;;
49840;SDS011;35738;49.890;5.930;2024-03-02T10:55:27;3.88;;;1.80;;
49840;SDS011;35738;49.890;5.930;2024-03-02T10:57:54;4.82;;;2.20;;
49840;SDS011;35738;49.890;5.930;2024-03-02T11:00:24;4.63;;;1.65;;
49840;SDS011;35738;49.890;5.930;2024-03-02T11:02:57;4.35;;;2.10;;
49840;SDS011;35738;49.890;5.930;2024-03-02T11:05:31;5.32;;;1.67;;
49840;SDS011;35738;49.890;5.930;2024-03-02T11:08:01;2.90;;;1.63;;
49840;SDS011;35738;49.890;5.930;2024-03-02T11:11:14;4.38;;;2.75;;
49840;SDS011;35738;49.890;5.930;2024-03-02T11:13:33;4.68;;;2.17;;
49840;SDS011;35738;49.890;5.930;2024-03-02T11:16:12;4.72;;;1.92;;
49840;SDS011;35738;49.890;5.930;2024-03-02T11:18:52;2.63;;;1.60;;
49840;SDS011;35738;49.890;5.930;2024-03-02T11:21:19;2.63;;;1.70;;
49840;SDS011;35738;49.890;5.930;2024-03-02T11:23:46;2.00;;;1.67;;
49840;SDS011;35738;49.890;5.930;2024-03-02T11:26:16;3.05;;;1.85;;
49840;SDS011;35738;49.890;5.930;2024-03-02T11:28:44;1.65;;;1.40;;
49840;SDS011;35738;49.890;5.930;2024-03-02T11:31:11;1.85;;;1.55;;
49840;SDS011;35738;49.890;5.930;2024-03-02T11:33:38;3.20;;;1.73;;
49840;SDS011;35738;49.890;5.930;2024-03-02T11:36:08;3.42;;;1.70;;
49840;SDS011;35738;49.890;5.930;2024-03-02T11:38:37;2.35;;;1.58;;
49840;SDS011;35738;49.890;5.930;2024-03-02T11:41:07;1.75;;;1.50;;
49840;SDS011;35738;49.890;5.930;2024-03-02T11:43:38;3.83;;;1.90;;
49840;SDS011;35738;49.890;5.930;2024-03-02T11:46:06;2.28;;;1.85;;
49840;SDS011;35738;49.890;5.930;2024-03-02T11:48:37;2.95;;;1.50;;
49840;SDS011;35738;49.890;5.930;2024-03-02T11:51:05;2.42;;;1.83;;
49840;SDS011;35738;49.890;5.930;2024-03-02T11:53:32;1.20;;;1.20;;
49840;SDS011;35738;49.890;5.930;2024-03-02T11:56:01;2.30;;;1.25;;
49840;SDS011;35738;49.890;5.930;2024-03-02T11:58:28;3.97;;;1.83;;
49840;SDS011;35738;49.890;5.930;2024-03-02T12:00:56;1.90;;;1.70;;
49840;SDS011;35738;49.890;5.930;2024-03-02T12:03:23;2.42;;;1.73;;
49840;SDS011;35738;49.890;5.930;2024-03-02T12:05:55;3.00;;;1.70;;
49840;SDS011;35738;49.890;5.930;2024-03-02T12:08:22;5.30;;;2.00;;
49840;SDS011;35738;49.890;5.930;2024-03-02T12:10:59;3.67;;;2.55;;
49840;SDS011;35738;49.890;5.930;2024-03-02T12:13:29;4.35;;;2.67;;
49840;SDS011;35738;49.890;5.930;2024-03-02T12:15:56;3.25;;;2.30;;
49840;SDS011;35738;49.890;5.930;2024-03-02T12:18:22;2.95;;;2.13;;
49840;SDS011;35738;49.890;5.930;2024-03-02T12:20:49;4.72;;;2.30;;
49840;SDS011;35738;49.890;5.930;2024-03-02T12:23:22;2.95;;;1.95;;
49840;SDS011;35738;49.890;5.930;2024-03-02T12:25:49;3.13;;;2.05;;
49840;SDS011;35738;49.890;5.930;2024-03-02T12:28:16;2.25;;;1.90;;
49840;SDS011;35738;49.890;5.930;2024-03-02T12:30:43;2.70;;;2.20;;
49840;SDS011;35738;49.890;5.930;2024-03-02T12:33:11;2.30;;;2.13;;
49840;SDS011;35738;49.890;5.930;2024-03-02T12:35:38;2.53;;;1.65;;
49840;SDS011;35738;49.890;5.930;2024-03-02T12:38:06;4.80;;;2.53;;
49840;SDS011;35738;49.890;5.930;2024-03-02T12:40:32;1.85;;;1.75;;
49840;SDS011;35738;49.890;5.930;2024-03-02T12:42:59;4.07;;;2.15;;
49840;SDS011;35738;49.890;5.930;2024-03-02T12:45:25;3.83;;;2.08;;
49840;SDS011;35738;49.890;5.930;2024-03-02T12:47:52;2.53;;;1.98;;
49840;SDS011;35738;49.890;5.930;2024-03-02T12:50:20;3.22;;;2.13;;
49840;SDS011;35738;49.890;5.930;2024-03-02T12:52:53;2.40;;;2.00;;
49840;SDS011;35738;49.890;5.930;2024-03-02T12:55:21;4.55;;;2.28;;
49840;SDS011;35738;49.890;5.930;2024-03-02T12:57:49;2.63;;;1.90;;
49840;SDS011;35738;49.890;5.930;2024-03-02T13:00:18;2.25;;;1.70;;
49840;SDS011;35738;49.890;5.930;2024-03-02T13:02:46;2.40;;;1.75;;
49840;SDS011;35738;49.890;5.930;2024-03-02T13:05:14;2.63;;;1.98;;
49840;SDS011;35738;49.890;5.930;2024-03-02T13:07:40;3.38;;;1.85;;
49840;SDS011;35738;49.890;5.930;2024-03-02T13:10:12;2.05;;;1.83;;
49840;SDS011;35738;49.890;5.930;2024-03-02T13:12:39;1.95;;;1.65;;
49840;SDS011;35738;49.890;5.930;2024-03-02T13:15:06;1.80;;;1.70;;
49840;SDS011;35738;49.890;5.930;2024-03-02T13:17:35;2.22;;;1.90;;
49840;SDS011;35738;49.890;5.930;2024-03-02T13:20:04;2.45;;;1.70;;
49840;SDS011;35738;49.890;5.930;2024-03-02T13:22:37;1.60;;;1.50;;
49840;SDS011;35738;49.890;5.930;2024-03-02T13:25:03;2.67;;;1.80;;
49840;SDS011;35738;49.890;5.930;2024-03-02T13:27:31;2.08;;;1.75;;
49840;SDS011;35738;49.890;5.930;2024-03-02T13:29:58;1.63;;;1.50;;
49840;SDS011;35738;49.890;5.930;2024-03-02T13:32:25;2.28;;;1.50;;
49840;SDS011;35738;49.890;5.930;2024-03-02T13:34:52;2.35;;;1.38;;
49840;SDS011;35738;49.890;5.930;2024-03-02T13:37:19;1.73;;;1.48;;
49840;SDS011;35738;49.890;5.930;2024-03-02T13:39:46;2.10;;;1.38;;
49840;SDS011;35738;49.890;5.930;2024-03-02T13:42:13;1.95;;;1.50;;
49840;SDS011;35738;49.890;5.930;2024-03-02T13:44:45;1.60;;;1.50;;
49840;SDS011;35738;49.890;5.930;2024-03-02T13:47:13;3.47;;;1.88;;
49840;SDS011;35738;49.890;5.930;2024-03-02T13:49:41;1.73;;;1.55;;
49840;SDS011;35738;49.890;5.930;2024-03-02T13:52:10;6.03;;;1.88;;
49840;SDS011;35738;49.890;5.930;2024-03-02T13:54:39;2.10;;;1.70;;
49840;SDS011;35738;49.890;5.930;2024-03-02T13:57:08;2.67;;;1.80;;
49840;SDS011;35738;49.890;5.930;2024-03-02T13:59:35;3.42;;;1.50;;
49840;SDS011;35738;49.890;5.930;2024-03-02T14:02:03;2.40;;;1.80;;
49840;SDS011;35738;49.890;5.930;2024-03-02T14:04:31;3.20;;;1.90;;
49840;SDS011;35738;49.890;5.930;2024-03-02T14:07:01;4.00;;;2.00;;
49840;SDS011;35738;49.890;5.930;2024-03-02T14:09:28;3.08;;;1.85;;
49840;SDS011;35738;49.890;5.930;2024-03-02T14:11:55;3.17;;;1.52;;
49840;SDS011;35738;49.890;5.930;2024-03-02T14:14:22;2.05;;;1.50;;
49840;SDS011;35738;49.890;5.930;2024-03-02T14:16:49;4.47;;;2.00;;
49840;SDS011;35738;49.890;5.930;2024-03-02T14:19:16;1.77;;;1.60;;
49840;SDS011;35738;49.890;5.930;2024-03-02T14:21:43;1.33;;;1.23;;
49840;SDS011;35738;49.890;5.930;2024-03-02T14:24:09;2.50;;;2.05;;
49840;SDS011;35738;49.890;5.930;2024-03-02T14:26:36;2.03;;;1.40;;
49840;SDS011;35738;49.890;5.930;2024-03-02T14:29:03;1.02;;;1.02;;
49840;SDS011;35738;49.890;5.930;2024-03-02T14:31:31;1.30;;;1.20;;
49840;SDS011;35738;49.890;5.930;2024-03-02T14:33:58;1.50;;;1.10;;
49840;SDS011;35738;49.890;5.930;2024-03-02T14:36:26;1.77;;;1.20;;
49840;SDS011;35738;49.890;5.930;2024-03-02T14:38:54;1.92;;;1.40;;
49840;SDS011;35738;49.890;5.930;2024-03-02T14:41:22;3.47;;;1.33;;
49840;SDS011;35738;49.890;5.930;2024-03-02T14:43:51;1.55;;;1.35;;
49840;SDS011;35738;49.890;5.930;2024-03-02T14:46:18;1.30;;;1.20;;
49840;SDS011;35738;49.890;5.930;2024-03-02T14:48:45;1.42;;;1.25;;
49840;SDS011;35738;49.890;5.930;2024-03-02T14:51:13;1.25;;;1.25;;
49840;SDS011;35738;49.890;5.930;2024-03-02T14:53:40;1.60;;;1.50;;
49840;SDS011;35738;49.890;5.930;2024-03-02T14:56:07;1.83;;;1.73;;